Time;durP1;ratioP1;P1;durP2;ratioP2;P2;SDS_P1;SDS_P2;PMS_P1;PMS_P2;Temp;Humidity;BMP_temperature;BMP_pressure;BME280_temperature;BME280_humidity;BME280_pressure;Samples;Min_cycle;Max_cycle;Signal;HPM_P1;HPM_P2
2023/02/14 00:01:45;;;;;;;63.50;29.63;;;;;;;4.16;100.00;103551.72;5090552;28;20401;-69
2023/02/14 00:04:10;;;;;;;57.20;27.67;;;;;;;4.18;100.00;103550.03;5091132;28;20521;-76
2023/02/14 00:06:37;;;;;;;52.78;27.58;;;;;;;4.17;100.00;103551.78;5091026;28;20024;-65
2023/02/14 00:09:14;;;;;;;58.47;28.25;;;;;;;4.14;100.00;103558.59;5091451;28;20061;-76
2023/02/14 00:11:40;;;;;;;56.58;27.25;;;;;;;4.15;100.00;103550.81;5092816;28;20020;-75
2023/02/14 00:16:50;;;;;;;57.15;26.60;;;;;;;4.15;100.00;103537.75;5071809;28;20039;-74
2023/02/14 00:19:17;;;;;;;67.15;28.45;;;;;;;4.15;100.00;103543.00;5082964;28;20020;-61
2023/02/14 00:21:42;;;;;;;54.85;26.95;;;;;;;4.15;100.00;103540.38;5090512;28;20035;-75
2023/02/14 00:24:11;;;;;;;57.17;27.27;;;;;;;4.14;100.00;103540.31;5089818;28;20055;-68
2023/02/14 00:26:40;;;;;;;54.17;27.02;;;;;;;4.11;100.00;103535.88;5090835;28;20072;-64
2023/02/14 00:29:07;;;;;;;55.58;26.38;;;;;;;4.11;100.00;103534.97;5089312;28;20069;-75
2023/02/14 00:31:33;;;;;;;49.95;25.60;;;;;;;4.10;100.00;103528.91;5091194;28;20024;-74
2023/02/14 00:33:59;;;;;;;53.67;26.90;;;;;;;4.19;100.00;103527.44;5090908;28;20035;-74
2023/02/14 00:36:24;;;;;;;59.33;28.45;;;;;;;4.24;100.00;103523.28;5090053;28;20020;-75
2023/02/14 00:38:49;;;;;;;61.25;27.45;;;;;;;4.22;100.00;103519.72;5092277;28;20380;-76
2023/02/14 00:41:18;;;;;;;57.90;26.88;;;;;;;4.18;100.00;103518.72;5094163;28;20035;-75
2023/02/14 00:43:47;;;;;;;55.60;25.80;;;;;;;4.14;100.00;103506.41;5091582;28;20027;-71
2023/02/14 00:46:13;;;;;;;54.53;26.10;;;;;;;4.13;100.00;103522.91;5090136;28;20085;-77
2023/02/14 00:48:38;;;;;;;54.28;25.80;;;;;;;4.16;100.00;103512.56;5090414;28;20032;-65
2023/02/14 00:51:04;;;;;;;54.70;27.08;;;;;;;4.22;100.00;103510.19;5090450;28;20031;-74
2023/02/14 00:53:29;;;;;;;59.95;28.52;;;;;;;4.21;100.00;103508.38;5090097;28;20552;-73
2023/02/14 00:55:54;;;;;;;60.88;27.95;;;;;;;4.19;100.00;103503.94;5090188;28;20737;-76
2023/02/14 00:58:20;;;;;;;58.63;27.73;;;;;;;4.21;100.00;103505.78;5090278;28;20040;-76
2023/02/14 01:00:45;;;;;;;57.05;27.30;;;;;;;4.20;100.00;103504.00;5090383;28;20031;-70
2023/02/14 01:03:10;;;;;;;59.53;27.58;;;;;;;4.16;100.00;103509.97;5089896;28;20566;-76
2023/02/14 01:05:36;;;;;;;58.13;28.30;;;;;;;4.11;100.00;103516.72;5088313;28;20023;-75
2023/02/14 01:08:01;;;;;;;63.05;28.83;;;;;;;4.07;100.00;103512.22;5089500;28;20103;-76
2023/02/14 01:10:26;;;;;;;56.00;26.95;;;;;;;4.06;100.00;103503.50;5088964;28;20439;-77
2023/02/14 01:12:52;;;;;;;59.33;27.30;;;;;;;4.06;100.00;103507.84;5088368;28;20058;-69
2023/02/14 01:15:17;;;;;;;54.30;26.40;;;;;;;3.99;100.00;103502.41;5088929;28;20478;-76
2023/02/14 01:17:43;;;;;;;56.10;26.88;;;;;;;3.99;100.00;103502.41;5088450;28;20107;-76
2023/02/14 01:20:08;;;;;;;51.92;25.42;;;;;;;3.98;100.00;103500.63;5088675;28;20024;-73
2023/02/14 01:22:35;;;;;;;50.45;24.73;;;;;;;3.97;100.00;103497.97;5088675;28;20085;-71
2023/02/14 01:25:01;;;;;;;57.25;25.90;;;;;;;4.01;100.00;103500.72;5089161;28;20036;-73
2023/02/14 01:27:27;;;;;;;59.50;28.55;;;;;;;4.06;100.00;103497.41;5089042;28;20543;-62
2023/02/14 01:29:52;;;;;;;57.30;28.20;;;;;;;4.09;100.00;103498.38;5078545;28;20035;-76
2023/02/14 01:32:18;;;;;;;54.50;26.42;;;;;;;4.11;100.00;103501.97;5067380;28;20495;-75
2023/02/14 01:34:43;;;;;;;58.15;26.70;;;;;;;4.11;100.00;103486.31;5068000;28;20074;-68
2023/02/14 01:37:08;;;;;;;59.92;26.88;;;;;;;4.13;100.00;103502.00;5068921;28;20029;-74
2023/02/14 01:39:34;;;;;;;56.17;26.85;;;;;;;4.13;100.00;103489.84;5067881;28;20032;-78
2023/02/14 01:41:59;;;;;;;58.33;28.30;;;;;;;4.16;100.00;103502.13;5068217;28;20128;-76
2023/02/14 01:44:25;;;;;;;62.25;28.25;;;;;;;4.13;100.00;103495.06;5066746;28;20467;-73
2023/02/14 01:46:50;;;;;;;53.30;26.45;;;;;;;4.14;100.00;103490.72;5068731;28;20024;-77
2023/02/14 01:49:17;;;;;;;58.92;27.98;;;;;;;4.16;100.00;103494.31;5070759;28;20036;-76
2023/02/14 01:51:50;;;;;;;63.80;29.83;;;;;;;4.15;100.00;103493.41;5077219;28;20036;-75
2023/02/14 01:54:16;;;;;;;59.33;27.55;;;;;;;4.14;100.00;103490.72;5074860;28;20021;-70
2023/02/14 01:56:44;;;;;;;57.78;26.88;;;;;;;4.12;100.00;103497.63;5073423;28;20743;-75
2023/02/14 01:59:14;;;;;;;62.88;28.35;;;;;;;4.13;100.00;103489.84;5056471;28;20052;-61
2023/02/14 02:01:40;;;;;;;65.13;29.05;;;;;;;4.12;100.00;103487.19;5072537;28;20020;-74
2023/02/14 02:04:11;;;;;;;56.90;27.75;;;;;;;4.10;100.00;103497.59;5072027;28;20035;-72
2023/02/14 02:06:41;;;;;;;69.40;28.25;;;;;;;4.14;100.00;103495.94;5089124;28;20024;-73
2023/02/14 02:09:09;;;;;;;;;;;;;;;4.13;100.00;103491.56;5094558;28;20035;-62
2023/02/14 02:11:34;;;;;;;53.43;26.43;;;;;;;4.12;100.00;103487.19;5091759;28;19935;-73
2023/02/14 02:14:00;;;;;;;54.50;26.38;;;;;;;4.07;100.00;103480.91;5075995;28;20554;-74
2023/02/14 02:16:32;;;;;;;59.05;26.50;;;;;;;4.04;100.00;103490.41;5073396;28;20028;-76
2023/02/14 02:19:14;;;;;;;55.72;25.63;;;;;;;3.97;100.00;103488.41;5070294;28;20483;-72
2023/02/14 02:21:52;;;;;;;54.05;26.95;;;;;;;3.91;100.00;103489.06;5068969;28;20693;-72
2023/02/14 02:24:21;;;;;;;47.55;23.20;;;;;;;3.86;100.00;103490.63;5069421;28;20778;-74
2023/02/14 02:27:04;;;;;;;;;;;;;;;3.86;100.00;103494.94;5073622;28;20093;-59
2023/02/14 02:30:06;;;;;;;46.80;22.00;;;;;;;3.84;100.00;103494.00;5069700;28;20271;-75
2023/02/14 02:32:57;;;;;;;55.47;24.90;;;;;;;3.78;100.00;103490.34;5067143;28;20089;-74
2023/02/14 02:35:36;;;;;;;47.05;23.52;;;;;;;3.72;100.00;103497.03;5070468;28;20029;-64
2023/02/14 02:38:15;;;;;;;;;;;;;;;3.66;100.00;103487.25;5070799;28;20037;-68
2023/02/14 02:40:43;;;;;;;41.42;21.58;;;;;;;3.63;100.00;103488.03;5054267;28;19913;-76
2023/02/14 02:43:36;;;;;;;52.50;23.23;;;;;;;3.63;100.00;103487.13;5066905;28;20074;-73
2023/02/14 02:49:12;;;;;;;42.17;20.48;;;;;;;3.48;100.00;103475.31;5067515;28;20473;-68
2023/02/14 02:54:41;;;;;;;46.53;23.65;;;;;;;3.49;100.00;103471.84;5065950;28;20098;-76
2023/02/14 02:57:13;;;;;;;51.83;23.50;;;;;;;3.55;100.00;103465.97;5067125;28;20063;-70
2023/02/14 02:59:41;;;;;;;51.03;24.05;;;;;;;3.56;100.00;103473.00;5064597;28;20029;-75
2023/02/14 03:02:12;;;;;;;49.00;23.95;;;;;;;3.58;100.00;103470.44;5049110;28;20836;-77
2023/02/14 03:04:53;;;;;;;55.05;24.85;;;;;;;3.59;100.00;103475.72;5066993;28;20371;-75
2023/02/14 03:07:34;;;;;;;50.10;23.88;;;;;;;3.62;100.00;103474.94;5065910;28;20013;-74
2023/02/14 03:10:00;;;;;;;49.72;22.70;;;;;;;3.62;100.00;103472.34;5066956;28;20043;-74
2023/02/14 03:12:39;;;;;;;57.08;25.90;;;;;;;3.68;100.00;103469.97;5066179;28;20031;-68
2023/02/14 03:15:17;;;;;;;;;;;;;;;3.72;100.00;103465.72;5066451;28;20038;-64
2023/02/14 03:18:24;;;;;;;53.78;24.65;;;;;;;3.71;100.00;103472.69;5066429;28;19935;-74
2023/02/14 03:20:59;;;;;;;54.00;25.77;;;;;;;3.74;100.00;103472.81;5066072;28;20564;-77
2023/02/14 03:23:30;;;;;;;65.78;27.45;;;;;;;3.75;100.00;103466.75;5082133;28;20075;-76
2023/02/14 03:26:16;;;;;;;62.70;27.27;;;;;;;3.74;100.00;103472.81;5086328;28;20062;-68
2023/02/14 03:28:46;;;;;;;60.90;26.77;;;;;;;3.70;100.00;103468.28;5085882;28;20024;-72
2023/02/14 03:31:17;;;;;;;54.42;25.98;;;;;;;3.64;100.00;103470.66;5071946;28;20512;-77
2023/02/14 03:33:48;;;;;;;54.85;25.75;;;;;;;3.62;100.00;103472.34;5075782;28;20044;-68
2023/02/14 03:36:29;;;;;;;63.47;26.73;;;;;;;3.60;100.00;103471.38;5069077;28;20031;-69
2023/02/14 03:39:36;;;;;;;54.25;25.50;;;;;;;3.54;100.00;103472.94;5081136;28;20032;-72
2023/02/14 03:42:06;;;;;;;48.20;24.95;;;;;;;3.52;100.00;103464.16;5087886;28;20079;-68
2023/02/14 03:44:33;;;;;;;52.50;24.00;;;;;;;3.48;100.00;103462.28;5088427;28;20024;-75
2023/02/14 03:47:03;;;;;;;51.45;22.75;;;;;;;3.45;100.00;103462.16;5090541;28;20051;-73
2023/02/14 03:49:30;;;;;;;45.78;22.92;;;;;;;3.40;100.00;103464.56;5089848;28;20052;-70
2023/02/14 03:51:57;;;;;;;47.20;22.98;;;;;;;3.38;100.00;103470.56;5088954;28;20039;-66
2023/02/14 03:54:24;;;;;;;52.58;24.60;;;;;;;3.33;100.00;103466.88;5089370;28;20036;-74
2023/02/14 03:56:55;;;;;;;50.65;24.20;;;;;;;3.33;100.00;103467.78;5088602;28;20381;-73
2023/02/14 03:59:26;;;;;;;60.55;25.27;;;;;;;3.35;100.00;103462.63;5087289;28;20032;-72
2023/02/14 04:02:19;;;;;;;55.08;24.13;;;;;;;3.22;100.00;103454.31;5089074;28;20031;-65
2023/02/14 04:04:47;;;;;;;56.05;25.48;;;;;;;3.30;100.00;103457.22;5088823;28;20030;-66
2023/02/14 04:07:18;;;;;;;47.97;22.83;;;;;;;3.28;100.00;103465.00;5089377;28;20024;-71
2023/02/14 04:09:44;;;;;;;48.70;23.73;;;;;;;3.27;100.00;103470.13;5090431;28;20032;-75
2023/02/14 04:12:09;;;;;;;48.15;23.83;;;;;;;3.27;100.00;103467.53;5088573;28;20016;-67
2023/02/14 04:14:35;;;;;;;49.42;22.48;;;;;;;3.22;100.00;103467.34;5068640;28;20033;-73
2023/02/14 04:19:45;;;;;;;46.38;22.63;;;;;;;3.18;100.00;103452.44;5068864;28;20110;-63
2023/02/14 04:22:10;;;;;;;50.28;23.08;;;;;;;3.18;100.00;103465.44;5069208;28;20670;-75
2023/02/14 04:24:35;;;;;;;49.60;24.30;;;;;;;3.19;100.00;103456.81;5069746;28;20091;-75
2023/02/14 04:27:10;;;;;;;51.05;24.27;;;;;;;3.19;100.00;103463.75;5069528;28;20048;-77
2023/02/14 04:29:47;;;;;;;51.50;24.77;;;;;;;3.18;100.00;103465.44;5067221;28;20024;-64
2023/02/14 04:32:16;;;;;;;52.92;24.70;;;;;;;3.20;100.00;103465.53;5069357;28;20037;-72
2023/02/14 04:34:41;;;;;;;45.47;22.60;;;;;;;3.16;100.00;103465.41;5069026;28;20042;-75
2023/02/14 04:37:07;;;;;;;54.35;23.58;;;;;;;3.16;100.00;103459.28;5068314;28;20036;-63
2023/02/14 04:39:34;;;;;;;55.33;25.23;;;;;;;3.18;100.00;103460.25;5072068;28;20020;-71
2023/02/14 04:41:59;;;;;;;60.75;26.10;;;;;;;3.16;100.00;103464.50;5083201;28;20114;-68
2023/02/14 04:44:25;;;;;;;59.10;25.55;;;;;;;3.20;100.00;103458.59;5087960;28;20024;-68
2023/02/14 04:46:50;;;;;;;59.13;26.77;;;;;;;3.27;100.00;103457.09;5088833;28;20021;-69
2023/02/14 04:49:16;;;;;;;58.15;26.08;;;;;;;3.26;100.00;103458.84;5089284;28;20028;-71
2023/02/14 04:51:42;;;;;;;56.78;26.35;;;;;;;3.25;100.00;103456.19;5087046;28;20026;-69
2023/02/14 04:54:07;;;;;;;56.25;26.13;;;;;;;3.24;100.00;103456.97;5089161;28;20085;-76
2023/02/14 04:56:33;;;;;;;67.85;27.48;;;;;;;3.26;100.00;103448.41;5089825;28;20098;-74
2023/02/14 04:58:58;;;;;;;62.10;26.90;;;;;;;3.36;100.00;103441.84;5087701;28;20039;-76
2023/02/14 05:01:23;;;;;;;64.90;26.98;;;;;;;3.37;100.00;103448.81;5080417;28;20036;-63
2023/02/14 05:03:49;;;;;;;59.90;26.20;;;;;;;3.36;100.00;103454.88;5088341;28;20036;-70
2023/02/14 05:06:14;;;;;;;55.78;26.00;;;;;;;3.37;100.00;103461.84;5090012;28;20024;-75
2023/02/14 05:08:40;;;;;;;62.85;27.95;;;;;;;3.38;100.00;103460.13;5079909;28;20698;-74
2023/02/14 05:11:05;;;;;;;60.28;27.02;;;;;;;3.34;100.00;103453.03;5085300;28;20032;-67
2023/02/14 05:13:31;;;;;;;61.95;26.88;;;;;;;3.31;100.00;103452.91;5088018;28;20120;-74
2023/02/14 05:15:56;;;;;;;59.47;27.13;;;;;;;3.32;100.00;103459.91;5088346;28;20134;-76
2023/02/14 05:18:21;;;;;;;57.17;26.73;;;;;;;3.30;100.00;103452.03;5086600;28;20020;-67
2023/02/14 05:20:51;;;;;;;63.38;28.00;;;;;;;3.34;100.00;103458.25;5089081;28;20028;-73
2023/02/14 05:23:17;;;;;;;59.30;26.90;;;;;;;3.32;100.00;103459.91;5088230;28;20393;-63
2023/02/14 05:25:42;;;;;;;62.35;27.85;;;;;;;3.29;100.00;103451.13;5079400;28;20024;-75
2023/02/14 05:28:08;;;;;;;60.75;27.65;;;;;;;3.27;100.00;103458.00;5087837;28;20083;-76
2023/02/14 05:30:34;;;;;;;64.38;28.13;;;;;;;3.28;100.00;103462.38;5088056;28;20024;-63
2023/02/14 05:32:59;;;;;;;61.90;26.98;;;;;;;3.25;100.00;103459.66;5085384;28;20039;-75
2023/02/14 05:35:25;;;;;;;62.28;28.38;;;;;;;3.29;100.00;103464.16;5086774;28;20016;-76
2023/02/14 05:37:51;;;;;;;66.15;28.48;;;;;;;3.29;100.00;103456.34;5084950;28;20031;-74
2023/02/14 05:40:16;;;;;;;62.83;27.92;;;;;;;3.28;100.00;103459.78;5087652;28;20633;-77
2023/02/14 05:42:42;;;;;;;69.38;28.40;;;;;;;3.32;100.00;103457.28;5082687;28;20021;-74
2023/02/14 05:45:08;;;;;;;62.70;27.45;;;;;;;3.32;100.00;103452.06;5081490;28;20027;-70
2023/02/14 05:47:33;;;;;;;60.20;27.10;;;;;;;3.29;100.00;103451.13;5087764;28;20221;-77
2023/02/14 05:49:59;;;;;;;71.43;27.67;;;;;;;3.28;100.00;103454.56;5088256;28;20025;-70
2023/02/14 05:52:24;;;;;;;66.30;27.90;;;;;;;3.25;100.00;103443.16;5076465;28;20032;-67
2023/02/14 05:54:49;;;;;;;58.42;27.77;;;;;;;3.23;100.00;103450.91;5068298;28;20104;-69
2023/02/14 05:57:15;;;;;;;60.40;27.42;;;;;;;3.22;100.00;103443.91;5066394;28;20410;-71
2023/02/14 05:59:40;;;;;;;59.25;27.88;;;;;;;3.25;100.00;103443.16;5067681;28;20111;-68
2023/02/14 06:02:06;;;;;;;72.32;29.27;;;;;;;3.25;100.00;103443.16;5084808;28;20028;-69
2023/02/14 06:04:31;;;;;;;58.90;28.10;;;;;;;3.29;100.00;103445.03;5087153;28;20031;-71
2023/02/14 06:06:56;;;;;;;59.80;27.58;;;;;;;3.36;100.00;103443.53;5087021;28;20383;-71
2023/02/14 06:09:22;;;;;;;61.10;27.98;;;;;;;3.31;100.00;103450.31;5088239;28;20381;-71
2023/02/14 06:11:47;;;;;;;64.70;28.67;;;;;;;3.32;100.00;103449.47;5088912;28;20378;-69
2023/02/14 06:14:13;;;;;;;63.80;29.25;;;;;;;3.38;100.00;103444.50;5071554;28;20040;-73
2023/02/14 06:16:38;;;;;;;55.42;27.83;;;;;;;3.33;100.00;103440.81;5068158;28;20025;-73
2023/02/14 06:19:04;;;;;;;69.30;30.27;;;;;;;3.34;100.00;103442.63;5067399;28;20020;-75
2023/02/14 06:21:29;;;;;;;58.00;29.75;;;;;;;3.36;100.00;103443.53;5066825;28;20017;-71
2023/02/14 06:23:54;;;;;;;62.00;27.75;;;;;;;3.38;100.00;103439.28;5066034;28;20041;-77
2023/02/14 06:26:20;;;;;;;60.10;28.75;;;;;;;3.34;100.00;103437.41;5068813;28;20059;-75
2023/02/14 06:28:45;;;;;;;50.58;26.67;;;;;;;3.29;100.00;103443.28;5067356;28;20025;-76
2023/02/14 06:31:16;;;;;;;54.80;26.70;;;;;;;3.22;100.00;103435.22;5067442;28;20032;-72
2023/02/14 06:33:41;;;;;;;54.42;25.38;;;;;;;3.23;100.00;103439.59;5066710;28;21022;-66
2023/02/14 06:36:07;;;;;;;53.13;26.50;;;;;;;3.17;100.00;103442.84;5067476;28;20100;-77
2023/02/14 06:38:32;;;;;;;51.97;27.38;;;;;;;3.15;100.00;103447.09;5066351;28;20383;-76
2023/02/14 06:41:05;;;;;;;56.25;26.83;;;;;;;3.10;100.00;103446.03;5065957;28;20389;-77
2023/02/14 06:43:30;;;;;;;53.92;26.92;;;;;;;3.14;100.00;103445.31;5066499;28;20450;-70
2023/02/14 06:45:56;;;;;;;60.47;27.75;;;;;;;3.14;100.00;103438.41;5066901;28;20052;-68
2023/02/14 06:48:21;;;;;;;51.70;26.48;;;;;;;3.10;100.00;103444.31;5065873;28;20071;-62
2023/02/14 06:50:47;;;;;;;53.92;26.88;;;;;;;3.06;100.00;103441.50;5067277;28;20028;-73
2023/02/14 06:53:12;;;;;;;53.05;25.75;;;;;;;3.00;100.00;103445.66;5066539;28;20111;-72
2023/02/14 06:55:37;;;;;;;50.28;25.95;;;;;;;3.03;100.00;103451.00;5066319;28;20031;-62
2023/02/14 06:58:05;;;;;;;53.08;26.27;;;;;;;2.99;100.00;103446.50;5065592;28;20020;-70
2023/02/14 07:00:31;;;;;;;55.88;27.73;;;;;;;2.90;100.00;103457.44;5071505;28;20028;-75
2023/02/14 07:02:56;;;;;;;55.60;27.67;;;;;;;2.96;100.00;103456.78;5069891;28;20399;-78
2023/02/14 07:05:21;;;;;;;57.83;27.65;;;;;;;2.95;100.00;103455.00;5071658;28;20127;-63
2023/02/14 07:07:47;;;;;;;53.58;27.27;;;;;;;2.90;100.00;103451.34;5074066;28;20100;-71
2023/02/14 07:10:12;;;;;;;55.47;28.13;;;;;;;2.92;100.00;103456.59;5072758;28;20016;-75
2023/02/14 07:12:38;;;;;;;52.60;27.08;;;;;;;2.92;100.00;103449.66;5070956;28;20064;-76
2023/02/14 07:15:08;;;;;;;54.85;27.67;;;;;;;2.88;100.00;103448.66;5084391;28;20027;-74
2023/02/14 07:17:34;;;;;;;59.95;27.52;;;;;;;2.87;100.00;103451.22;5087962;28;20048;-75
2023/02/14 07:19:59;;;;;;;54.20;26.17;;;;;;;2.89;100.00;103449.56;5090575;28;20073;-72
2023/02/14 07:22:24;;;;;;;57.75;28.48;;;;;;;2.88;100.00;103450.38;5090811;28;20463;-74
2023/02/14 07:24:50;;;;;;;56.80;26.98;;;;;;;2.92;100.00;103447.06;5091120;28;20055;-74
2023/02/14 07:27:15;;;;;;;60.03;28.70;;;;;;;2.96;100.00;103458.50;5090389;28;20023;-64
2023/02/14 07:29:40;;;;;;;63.42;28.77;;;;;;;2.97;100.00;103452.44;5090945;28;20470;-73
2023/02/14 07:32:06;;;;;;;54.45;28.40;;;;;;;3.00;100.00;103450.88;5091008;28;20100;-76
2023/02/14 07:34:31;;;;;;;60.50;29.63;;;;;;;2.97;100.00;103453.34;5090501;28;20027;-71
2023/02/14 07:36:57;;;;;;;57.55;28.40;;;;;;;2.99;100.00;103464.75;5090958;28;20562;-70
2023/02/14 07:39:22;;;;;;;56.70;28.60;;;;;;;2.98;100.00;103460.34;5087786;28;20035;-68
2023/02/14 07:41:48;;;;;;;54.10;29.75;;;;;;;3.00;100.00;103469.09;5077661;28;20070;-68
2023/02/14 07:44:13;;;;;;;56.38;28.65;;;;;;;2.99;100.00;103466.44;5080099;28;20414;-74
2023/02/14 07:46:38;;;;;;;62.83;29.52;;;;;;;3.05;100.00;103465.78;5089400;28;20020;-70
2023/02/14 07:49:04;;;;;;;63.38;29.70;;;;;;;3.03;100.00;103469.22;5090605;28;20684;-75
2023/02/14 07:51:29;;;;;;;55.28;29.45;;;;;;;3.09;100.00;103465.09;5090291;28;20120;-74
2023/02/14 07:53:54;;;;;;;61.20;30.52;;;;;;;3.03;100.00;103464.03;5090050;28;20024;-74
2023/02/14 07:56:20;;;;;;;56.85;29.02;;;;;;;3.01;100.00;103455.25;5081110;28;20060;-70
2023/02/14 07:58:45;;;;;;;55.05;29.17;;;;;;;3.09;100.00;103459.88;5081057;28;20020;-71
2023/02/14 08:01:11;;;;;;;53.40;29.75;;;;;;;3.07;100.00;103461.53;5090089;28;20129;-71
2023/02/14 08:03:36;;;;;;;57.85;30.30;;;;;;;3.09;100.00;103462.47;5084118;28;20027;-62
2023/02/14 08:06:02;;;;;;;55.78;29.05;;;;;;;3.13;100.00;103459.19;5084528;28;20047;-69
2023/02/14 08:08:29;;;;;;;58.83;30.90;;;;;;;3.15;100.00;103463.63;5091298;28;20374;-71
2023/02/14 08:10:55;;;;;;;60.67;30.60;;;;;;;3.19;100.00;103462.00;5090043;28;20035;-76
2023/02/14 08:13:20;;;;;;;58.50;31.52;;;;;;;3.24;100.00;103460.50;5090066;28;20024;-63
2023/02/14 08:16:04;;;;;;;61.60;31.38;;;;;;;3.24;100.00;103468.31;5086898;28;20055;-74
2023/02/14 08:18:32;;;;;;;60.50;30.65;;;;;;;3.36;100.00;103461.78;5087664;28;20036;-65
2023/02/14 08:20:57;;;;;;;56.97;30.27;;;;;;;3.40;100.00;103458.47;5090300;28;20020;-75
2023/02/14 08:23:23;;;;;;;67.38;32.25;;;;;;;3.52;100.00;103466.75;5088932;28;20347;-70
2023/02/14 08:25:49;;;;;;;60.78;32.00;;;;;;;3.58;100.00;103462.63;5085474;28;20026;-74
2023/02/14 08:28:15;;;;;;;62.28;31.48;;;;;;;3.65;100.00;103460.28;5082636;28;20016;-75
2023/02/14 08:30:41;;;;;;;72.15;34.53;;;;;;;3.73;100.00;103460.56;5081717;28;20028;-64
2023/02/14 08:33:07;;;;;;;70.70;35.05;;;;;;;3.74;100.00;103466.69;5077310;28;20051;-77
2023/02/14 08:35:32;;;;;;;79.35;35.13;;;;;;;3.87;100.00;103458.50;5079289;28;20055;-75
2023/02/14 08:37:58;;;;;;;80.72;35.38;;;;;;;3.93;100.00;103460.44;5084663;28;20030;-74
2023/02/14 08:40:23;;;;;;;73.82;36.30;;;;;;;4.03;100.00;103462.53;5079908;28;20063;-76
2023/02/14 08:42:48;;;;;;;74.78;36.88;;;;;;;4.08;100.00;103462.69;5086606;28;20039;-76
2023/02/14 08:45:14;;;;;;;80.15;35.95;;;;;;;4.15;100.00;103471.63;5082898;28;20012;-76
2023/02/14 08:47:39;;;;;;;73.50;36.92;;;;;;;4.18;100.00;103463.91;5080708;28;20018;-72
2023/02/14 08:50:08;;;;;;;77.65;38.05;;;;;;;4.25;100.00;103457.19;5087860;28;20076;-69
2023/02/14 08:52:33;;;;;;;68.38;35.97;;;;;;;4.38;100.00;103461.09;5087005;28;20048;-79
2023/02/14 08:54:59;;;;;;;81.72;37.33;;;;;;;4.48;100.00;103465.81;5084668;28;20028;-76
2023/02/14 08:57:26;;;;;;;83.20;38.38;;;;;;;4.49;100.00;103454.53;5083892;28;20062;-76
2023/02/14 08:59:52;;;;;;;80.50;40.00;;;;;;;4.59;100.00;103449.63;5087192;28;20020;-69
2023/02/14 09:02:17;;;;;;;85.35;40.22;;;;;;;4.69;100.00;103456.91;5078341;28;20031;-69
2023/02/14 09:04:43;;;;;;;86.50;40.38;;;;;;;4.77;100.00;103452.84;5084640;28;20031;-75
2023/02/14 09:07:10;;;;;;;89.28;41.33;;;;;;;4.82;100.00;103444.28;5087779;28;20082;-78
2023/02/14 09:09:36;;;;;;;100.40;41.30;;;;;;;4.92;100.00;103447.25;5080773;28;20051;-76
2023/02/14 09:12:07;;;;;;;90.60;43.55;;;;;;;5.06;100.00;103450.28;5086647;28;20024;-76
2023/02/14 09:14:38;;;;;;;92.18;40.35;;;;;;;5.12;100.00;103449.56;5087586;28;20047;-63
2023/02/14 09:17:04;;;;;;;78.45;43.00;;;;;;;5.08;100.00;103452.94;5086801;28;20096;-69
2023/02/14 09:19:34;;;;;;;95.57;42.05;;;;;;;5.24;100.00;103449.06;5088979;28;20024;-73
2023/02/14 09:22:00;;;;;;;86.13;42.80;;;;;;;5.40;100.00;103446.91;5089346;28;20043;-74
2023/02/14 09:24:26;;;;;;;82.85;41.17;;;;;;;5.41;100.00;103441.75;5088738;28;20044;-75
2023/02/14 09:26:52;;;;;;;88.65;43.50;;;;;;;5.54;100.00;103442.97;5086413;28;20375;-69
2023/02/14 09:29:18;;;;;;;84.85;42.45;;;;;;;5.65;100.00;103445.00;5085082;28;20016;-74
2023/02/14 09:31:43;;;;;;;85.78;43.05;;;;;;;5.75;100.00;103441.81;5075254;28;20027;-74
2023/02/14 09:34:08;;;;;;;82.78;43.15;;;;;;;5.89;100.00;103442.22;5078349;28;20095;-75
2023/02/14 09:39:18;;;;;;;79.03;40.50;;;;;;;5.98;100.00;103444.19;5087132;28;20042;-70
2023/02/14 09:41:49;;;;;;;77.43;40.47;;;;;;;6.00;100.00;103439.00;5087617;28;20028;-75
2023/02/14 09:44:32;;;;;;;77.75;40.28;;;;;;;6.12;100.00;103442.00;5088657;28;20032;-71
2023/02/14 09:47:04;;;;;;;89.32;42.63;;;;;;;6.28;100.00;103443.28;5084617;28;20437;-76
2023/02/14 09:49:32;;;;;;;77.78;41.70;;;;;;;6.36;100.00;103445.22;5086558;28;20024;-67
2023/02/14 09:51:58;;;;;;;79.65;41.60;;;;;;;6.43;100.00;103436.66;5087044;28;20038;-74
2023/02/14 09:54:26;;;;;;;75.65;41.20;;;;;;;6.51;100.00;103439.50;5086154;28;20497;-76
2023/02/14 09:57:01;;;;;;;78.70;40.65;;;;;;;6.53;100.00;103436.06;5087497;28;20028;-62
2023/02/14 09:59:48;;;;;;;79.65;40.15;;;;;;;6.63;100.00;103437.19;5087724;28;20085;-75
2023/02/14 10:02:37;;;;;;;69.50;39.47;;;;;;;6.69;100.00;103439.06;5085566;28;20133;-78
2023/02/14 10:05:05;;;;;;;73.90;40.20;;;;;;;6.79;100.00;103438.44;5086895;28;20099;-76
2023/02/14 10:08:03;;;;;;;70.23;39.67;;;;;;;6.91;100.00;103442.19;5080072;28;20028;-68
2023/02/14 10:10:35;;;;;;;73.65;40.70;;;;;;;7.01;100.00;103445.94;5075326;28;20044;-77
2023/02/14 10:13:27;;;;;;;72.75;39.72;;;;;;;7.09;100.00;103444.34;5066101;28;20029;-77
2023/02/14 10:16:08;;;;;;;69.13;39.05;;;;;;;7.24;100.00;103438.56;5065577;28;20111;-76
2023/02/14 10:18:41;;;;;;;72.45;38.65;;;;;;;7.36;100.00;103437.94;5064742;28;20024;-62
2023/02/14 10:21:12;;;;;;;66.55;37.88;;;;;;;7.43;100.00;103434.59;5065651;28;20020;-72
2023/02/14 10:23:42;;;;;;;72.35;38.75;;;;;;;7.58;100.00;103435.75;5065961;28;20067;-75
2023/02/14 10:26:11;;;;;;;69.90;38.70;;;;;;;7.67;100.00;103425.47;5066414;28;20526;-75
2023/02/14 10:28:41;;;;;;;62.08;37.70;;;;;;;7.75;100.00;103430.88;5064442;28;20403;-69
2023/02/14 10:31:18;;;;;;;66.45;37.60;;;;;;;7.87;100.00;103434.59;5066690;28;20055;-59
2023/02/14 10:33:51;;;;;;;66.45;36.47;;;;;;;7.94;100.00;103433.84;5065585;28;20031;-72
2023/02/14 10:36:22;;;;;;;60.67;35.78;;;;;;;8.07;100.00;103437.59;5066726;28;20043;-76
2023/02/14 10:39:00;;;;;;;62.38;37.22;;;;;;;8.13;100.00;103431.56;5065823;28;20194;-65
2023/02/14 10:41:27;;;;;;;66.30;35.92;;;;;;;8.17;100.00;103423.78;5070134;28;20034;-75
2023/02/14 10:44:11;;;;;;;61.72;36.50;;;;;;;8.37;100.00;103427.63;5085893;28;20055;-69
2023/02/14 10:46:53;;;;;;;65.30;37.10;;;;;;;8.46;100.00;103433.03;5079174;28;20032;-70
2023/02/14 10:49:37;;;;;;;65.38;36.80;;;;;;;8.49;100.00;103424.31;5086751;28;20060;-74
2023/02/14 10:52:28;;;;;;;60.95;35.05;;;;;;;8.67;100.00;103429.03;5085086;28;20028;-73
2023/02/14 10:54:56;;;;;;;59.67;34.75;;;;;;;8.63;100.00;103428.06;5085052;28;20089;-71
2023/02/14 10:57:30;;;;;;;56.30;33.58;;;;;;;8.77;100.00;103425.66;5083860;28;20600;-63
2023/02/14 11:00:03;;;;;;;57.42;33.35;;;;;;;8.87;100.00;103425.78;5084924;28;20032;-70
2023/02/14 11:02:32;;;;;;;61.33;35.75;;;;;;;9.01;100.00;103420.75;5086887;28;20111;-66
2023/02/14 11:04:59;;;;;;;55.58;34.13;;;;;;;9.15;100.00;103415.69;5068911;28;20028;-71
2023/02/14 11:07:24;;;;;;;58.55;34.40;;;;;;;9.21;100.00;103414.00;5085975;28;20032;-69
2023/02/14 11:09:49;;;;;;;56.55;32.42;;;;;;;9.18;100.00;103407.84;5086360;28;20032;-71
2023/02/14 11:12:50;;;;;;;55.55;32.85;;;;;;;9.39;100.00;103412.47;5081533;28;20034;-71
2023/02/14 11:15:15;;;;;;;57.78;30.92;;;;;;;9.49;100.00;103405.59;5024234;28;20110;-68
2023/02/14 11:17:41;;;;;;;53.70;31.85;;;;;;;9.70;100.00;103398.81;5055426;28;20462;-75
2023/02/14 11:20:26;;;;;;;58.35;32.00;;;;;;;9.85;100.00;103391.06;5065522;28;20032;-76
2023/02/14 11:22:52;;;;;;;55.05;30.85;;;;;;;9.99;100.00;103396.47;5065820;28;20021;-69
2023/02/14 11:25:21;;;;;;;49.17;30.25;;;;;;;10.18;100.00;103386.09;5071403;28;20054;-65
2023/02/14 11:27:49;;;;;;;50.15;31.05;;;;;;;10.24;100.00;103380.00;5081390;28;20027;-70
2023/02/14 11:30:33;;;;;;;46.33;29.30;;;;;;;10.46;100.00;103385.47;5086326;28;20028;-72
2023/02/14 11:32:59;;;;;;;56.13;31.05;;;;;;;10.61;100.00;103380.31;5087139;28;20032;-64